Carnival Conquest — 3FPQ9 — position and weather

sailwx.info

Track history (hours):
 
Tides and Currents Weather Stations Pressure Air Temp Water Temp Dewpoint Dewpoint Depression Visibility Wind Speed Wind Dir Waves Ship Positions

Carnival Conquest

Operator: Carnival Cruise Lines

Last reported at 2020-Jan-23 13:00 UTC. Time now 2020-Jan-24 03:06 UTC.
Position N 21°24' W 070°30'.

Type: Ship. MMSI: 357657000.

Wind from 290 at 30 knots

Barometer 1013.8 mb
Air temperature 23.0 ° C
Visibility: greater than 10.8 NM
Dewpoint 20.1 ° C
Water temperature 27.0 ° C

Date/timePositionNaut miles runAvg speedWind from/ knotsBaromVisibWave heightAir tempDewpointWater temp
2020-Jan-23 13:00N 21°24' W 070°30'30410.8 290 / 301013.810.8 23.020.127.0
2020-Jan-22 08:58N 18°42' W 065°56'4 7.8
2020-Jan-22 08:30N 18°42' W 065°53'36 7.9
2020-Jan-22 04:00N 18°39' W 065°15'4 7.8
2020-Jan-22 03:30N 18°38' W 065°11'24 7.0
2020-Jan-22 00:00N 18°19' W 064°56'1 0.3
2020-Jan-21 20:26N 18°20' W 064°55'34 4.6
2020-Jan-21 13:00N 18°31' W 065°29'1313.1
2020-Jan-21 12:00N 18°36' W 065°42'1633.2 110 / 231016.310.8 23.020.127.0
2020-Jan-21 11:30N 18°40' W 065°58'50713.9
2020-Jan-19 23:00N 21°00' W 074°36'19517.7 100 / 251018.0 25.022.226.0
2020-Jan-19 12:00N 22°18' W 077°48'8917.9 070 / 301020.0 23.020.126.2
2020-Jan-19 07:00N 23°18' W 079°00'15617.4 060 / 301021.210.8 22.019.026.0
2020-Jan-18 22:00N 25°44' W 080°01'510.2
2020-Jan-18 21:31N 25°46' W 080°06'4 4.1
2020-Jan-18 20:30N 25°47' W 080°10'0 0.0
2020-Jan-18 19:30N 25°47' W 080°10'0 0.0
2020-Jan-18 17:57N 25°47' W 080°10'0 0.0
2020-Jan-18 17:27N 25°47' W 080°10'0 0.0
2020-Jan-18 16:30N 25°47' W 080°10'0 0.0
2020-Jan-18 15:30N 25°47' W 080°10'0 0.0
2020-Jan-18 15:00N 25°47' W 080°10'0 0.0
2020-Jan-18 13:30N 25°47' W 080°10'6 2.2
2020-Jan-18 10:30N 25°47' W 080°03'5 9.4
2020-Jan-18 10:00N 25°43' W 080°00'34313.2
2020-Jan-17 08:00N 22°24' W 085°06'15610.7 080 / 301021.310.8 25.022.227.0
2020-Jan-16 17:28N 20°29' W 086°59'0 0.0
2020-Jan-16 16:58N 20°29' W 086°59'0 0.0
2020-Jan-16 13:58N 20°29' W 086°59'0 0.0
2020-Jan-16 12:56N 20°29' W 086°59'0 0.0
2020-Jan-16 12:30N 20°29' W 086°59'2 3.8
2020-Jan-16 12:00N 20°29' W 087°01'1312.4
2020-Jan-16 10:59N 20°17' W 087°06'210 7.5
2020-Jan-15 07:00N 16°48' W 087°24'10 4.7 090 / 251016.810.8 26.023.228.0
2020-Jan-15 04:58N 16°42' W 087°16'14 9.7
2020-Jan-15 03:30N 16°34' W 087°04'10 9.8
2020-Jan-15 02:30N 16°28' W 086°56'10 9.7
2020-Jan-15 01:30N 16°22' W 086°48'1510.0
2020-Jan-15 00:00N 16°13' W 086°36'9 3.3
2020-Jan-14 21:27N 16°20' W 086°30'0 0.0
2020-Jan-14 21:00N 16°20' W 086°30'0 0.0
2020-Jan-14 19:27N 16°20' W 086°30'0 0.0
2020-Jan-14 18:30N 16°20' W 086°30'0 0.0
2020-Jan-14 17:57N 16°20' W 086°30'0 0.0
2020-Jan-14 17:30N 16°20' W 086°30'0 0.0
2020-Jan-14 17:00N 16°20' W 086°30'0 0.0
2020-Jan-14 15:00N 16°20' W 086°30'1 1.7
2020-Jan-14 14:30N 16°19' W 086°30'1110.8
2020-Jan-14 13:30N 16°19' W 086°18'10919.8
2020-Jan-14 08:00N 17°18' W 084°42'22119.2 090 / 251017.710.8 26.023.228.0
2020-Jan-13 20:30N 19°17' W 081°26'3 1.1
2020-Jan-13 18:00N 19°18' W 081°23'0 0.0
2020-Jan-13 17:00N 19°18' W 081°23'  
Track history (hours):
 
Tides and Currents Weather Stations Pressure Air Temp Water Temp Dewpoint Dewpoint Depression Visibility Wind Speed Wind Dir Waves Ship Positions

Carnival Conquest

Operator: Carnival Cruise Lines

Last reported at 2020-Jan-23 13:00 UTC. Time now 2020-Jan-24 03:06 UTC.
Position N 21°24' W 070°30'.

Type: Ship. MMSI: 357657000.

Wind from 290 at 30 knots

Barometer 1013.8 mb
Air temperature 23.0 ° C
Visibility: greater than 10.8 NM
Dewpoint 20.1 ° C
Water temperature 27.0 ° C

Date/timePositionNaut miles runAvg speedWind from/ knotsBaromVisibWave heightAir tempDewpointWater temp
2020-Jan-23 13:00N 21°24' W 070°30'30410.8 290 / 301013.810.8 23.020.127.0
2020-Jan-22 08:58N 18°42' W 065°56'4 7.8
2020-Jan-22 08:30N 18°42' W 065°53'36 7.9
2020-Jan-22 04:00N 18°39' W 065°15'4 7.8
2020-Jan-22 03:30N 18°38' W 065°11'24 7.0
2020-Jan-22 00:00N 18°19' W 064°56'1 0.3
2020-Jan-21 20:26N 18°20' W 064°55'34 4.6
2020-Jan-21 13:00N 18°31' W 065°29'1313.1
2020-Jan-21 12:00N 18°36' W 065°42'1633.2 110 / 231016.310.8 23.020.127.0
2020-Jan-21 11:30N 18°40' W 065°58'50713.9
2020-Jan-19 23:00N 21°00' W 074°36'19517.7 100 / 251018.0 25.022.226.0
2020-Jan-19 12:00N 22°18' W 077°48'8917.9 070 / 301020.0 23.020.126.2
2020-Jan-19 07:00N 23°18' W 079°00'15617.4 060 / 301021.210.8 22.019.026.0
2020-Jan-18 22:00N 25°44' W 080°01'510.2
2020-Jan-18 21:31N 25°46' W 080°06'4 4.1
2020-Jan-18 20:30N 25°47' W 080°10'0 0.0
2020-Jan-18 19:30N 25°47' W 080°10'0 0.0
2020-Jan-18 17:57N 25°47' W 080°10'0 0.0
2020-Jan-18 17:27N 25°47' W 080°10'0 0.0
2020-Jan-18 16:30N 25°47' W 080°10'0 0.0
2020-Jan-18 15:30N 25°47' W 080°10'0 0.0
2020-Jan-18 15:00N 25°47' W 080°10'0 0.0
2020-Jan-18 13:30N 25°47' W 080°10'6 2.2
2020-Jan-18 10:30N 25°47' W 080°03'5 9.4
2020-Jan-18 10:00N 25°43' W 080°00'34313.2
2020-Jan-17 08:00N 22°24' W 085°06'15610.7 080 / 301021.310.8 25.022.227.0
2020-Jan-16 17:28N 20°29' W 086°59'0 0.0
2020-Jan-16 16:58N 20°29' W 086°59'0 0.0
2020-Jan-16 13:58N 20°29' W 086°59'0 0.0
2020-Jan-16 12:56N 20°29' W 086°59'0 0.0
2020-Jan-16 12:30N 20°29' W 086°59'2 3.8
2020-Jan-16 12:00N 20°29' W 087°01'1312.4
2020-Jan-16 10:59N 20°17' W 087°06'210 7.5
2020-Jan-15 07:00N 16°48' W 087°24'10 4.7 090 / 251016.810.8 26.023.228.0
2020-Jan-15 04:58N 16°42' W 087°16'14 9.7
2020-Jan-15 03:30N 16°34' W 087°04'10 9.8
2020-Jan-15 02:30N 16°28' W 086°56'10 9.7
2020-Jan-15 01:30N 16°22' W 086°48'1510.0
2020-Jan-15 00:00N 16°13' W 086°36'9 3.3
2020-Jan-14 21:27N 16°20' W 086°30'0 0.0
2020-Jan-14 21:00N 16°20' W 086°30'0 0.0
2020-Jan-14 19:27N 16°20' W 086°30'0 0.0
2020-Jan-14 18:30N 16°20' W 086°30'0 0.0
2020-Jan-14 17:57N 16°20' W 086°30'0 0.0
2020-Jan-14 17:30N 16°20' W 086°30'0 0.0
2020-Jan-14 17:00N 16°20' W 086°30'0 0.0
2020-Jan-14 15:00N 16°20' W 086°30'1 1.7
2020-Jan-14 14:30N 16°19' W 086°30'1110.8
2020-Jan-14 13:30N 16°19' W 086°18'10919.8
2020-Jan-14 08:00N 17°18' W 084°42'22119.2 090 / 251017.710.8 26.023.228.0
2020-Jan-13 20:30N 19°17' W 081°26'3 1.1
2020-Jan-13 18:00N 19°18' W 081°23'0 0.0
2020-Jan-13 17:00N 19°18' W 081°23'  

Dump ship's entire track history